createdAt,value
2022-10-05T00:03:38.020Z,13.60
2022-10-05T00:06:24.718Z,13.70
2022-10-05T00:09:49.927Z,13.30
2022-10-05T00:12:35.035Z,12.60
2022-10-05T00:15:39.787Z,14.70
2022-10-05T00:18:25.733Z,13.30
2022-10-05T00:21:53.636Z,13.30
2022-10-05T00:24:52.318Z,14.60
2022-10-05T00:27:58.353Z,13.60
2022-10-05T00:31:00.838Z,37.50
2022-10-05T00:33:32.447Z,11.10
2022-10-05T00:36:26.711Z,11.90
2022-10-05T00:39:36.135Z,15.20
2022-10-05T00:43:24.928Z,13.90
2022-10-05T00:46:18.039Z,14.60
2022-10-05T00:49:34.141Z,12.80
2022-10-05T00:53:20.591Z,22.40
2022-10-05T00:56:55.693Z,12.50
2022-10-05T01:00:16.872Z,14.80
2022-10-05T01:03:06.110Z,14.10
2022-10-05T01:06:12.471Z,13.50
2022-10-05T01:12:07.835Z,13.80
2022-10-05T01:15:22.851Z,12.90
2022-10-05T01:18:30.902Z,12.90
2022-10-05T01:21:29.943Z,15.00
2022-10-05T01:24:46.861Z,14.90
2022-10-05T01:28:13.046Z,13.00
2022-10-05T01:31:33.028Z,12.60
2022-10-05T01:34:20.928Z,13.70
2022-10-05T01:37:50.951Z,12.90
2022-10-05T01:41:15.054Z,14.70
2022-10-05T01:44:52.688Z,13.20
2022-10-05T01:48:00.135Z,52.60
2022-10-05T01:51:13.127Z,13.50
2022-10-05T01:54:37.261Z,12.60
2022-10-05T01:58:07.207Z,13.40
2022-10-05T02:01:12.241Z,12.40
2022-10-05T02:03:57.768Z,13.10
2022-10-05T02:07:25.537Z,14.70
2022-10-05T02:13:45.390Z,10.10
2022-10-05T02:17:11.727Z,11.80
2022-10-05T02:20:11.201Z,10.40
2022-10-05T02:22:58.406Z,10.20
2022-10-05T02:25:58.320Z,12.40
2022-10-05T02:29:18.296Z,11.80
2022-10-05T02:32:21.619Z,14.00
2022-10-05T02:35:01.159Z,11.00
2022-10-05T02:38:27.928Z,9.90
2022-10-05T02:41:33.203Z,11.10
2022-10-05T02:44:59.337Z,10.60
2022-10-05T02:47:59.391Z,13.30
2022-10-05T02:50:45.887Z,8.30
2022-10-05T02:54:11.248Z,9.70
2022-10-05T02:57:34.743Z,10.50
2022-10-05T03:00:55.132Z,11.80
2022-10-05T03:04:31.561Z,10.40
2022-10-05T03:08:22.636Z,11.50
2022-10-05T03:12:42.527Z,9.00
2022-10-05T03:15:54.253Z,11.40
2022-10-05T03:18:41.832Z,9.90
2022-10-05T03:22:12.898Z,10.20
2022-10-05T03:25:11.111Z,10.00
2022-10-05T03:28:16.175Z,9.60
2022-10-05T03:31:28.896Z,10.70
2022-10-05T03:34:41.514Z,7.40
2022-10-05T03:37:43.308Z,6.70
2022-10-05T03:40:24.664Z,9.90
2022-10-05T03:43:35.860Z,10.40
2022-10-05T03:46:42.040Z,9.40
2022-10-05T03:49:58.879Z,7.00
2022-10-05T03:52:56.322Z,7.10
2022-10-05T03:55:57.388Z,8.70
2022-10-05T03:58:39.892Z,9.50
2022-10-05T04:01:22.680Z,9.10
2022-10-05T04:04:08.090Z,8.10
2022-10-05T04:07:23.884Z,8.70
2022-10-05T04:09:57.813Z,9.00
2022-10-05T04:12:54.157Z,8.40
2022-10-05T04:15:45.706Z,9.90
2022-10-05T04:18:47.228Z,11.40
2022-10-05T04:21:24.213Z,10.40
2022-10-05T04:24:10.186Z,9.30
2022-10-05T04:27:23.409Z,8.30
2022-10-05T04:30:19.119Z,11.30
2022-10-05T04:32:59.850Z,8.40
2022-10-05T04:36:00.036Z,10.10
2022-10-05T04:39:13.309Z,9.40
2022-10-05T04:42:12.319Z,10.90
2022-10-05T04:45:08.841Z,8.90
2022-10-05T04:50:58.550Z,10.50
2022-10-05T04:53:50.815Z,7.10
2022-10-05T04:56:44.204Z,10.00
2022-10-05T04:59:34.942Z,9.00
2022-10-05T05:02:21.218Z,9.60
2022-10-05T05:05:27.101Z,9.30
2022-10-05T05:08:40.806Z,8.20
2022-10-05T05:11:46.403Z,8.00
2022-10-05T05:14:48.601Z,8.80
2022-10-05T05:17:46.128Z,8.00
2022-10-05T05:20:57.543Z,8.10
2022-10-05T05:23:37.775Z,8.80
2022-10-05T05:26:39.065Z,7.80
2022-10-05T05:29:30.471Z,7.70
2022-10-05T05:32:21.024Z,13.40
2022-10-05T05:35:09.158Z,8.20
2022-10-05T05:37:50.145Z,10.70
2022-10-05T05:40:27.459Z,7.70
2022-10-05T05:43:16.696Z,9.20
2022-10-05T05:46:12.281Z,11.40
2022-10-05T05:48:46.564Z,8.30
2022-10-05T05:51:39.659Z,10.60
2022-10-05T05:54:23.266Z,9.80
2022-10-05T05:57:24.864Z,8.40
2022-10-05T06:00:07.724Z,9.70
2022-10-05T06:02:48.522Z,6.80
2022-10-05T06:05:40.753Z,10.00
2022-10-05T06:08:34.167Z,11.40
2022-10-05T06:11:21.177Z,10.40
2022-10-05T06:13:52.814Z,8.30
2022-10-05T06:16:46.212Z,16.20
2022-10-05T06:19:20.509Z,10.70
2022-10-05T06:22:03.656Z,9.70
2022-10-05T06:25:05.833Z,9.50
2022-10-05T06:27:37.612Z,9.90
2022-10-05T06:30:15.315Z,6.90
2022-10-05T06:32:50.633Z,9.40
2022-10-05T06:35:48.357Z,6.10
2022-10-05T06:38:28.752Z,5.60
2022-10-05T06:41:27.201Z,8.80
2022-10-05T06:44:14.978Z,10.60
2022-10-05T06:47:00.819Z,7.20
2022-10-05T06:50:11.828Z,6.50
2022-10-05T06:53:24.534Z,8.70
2022-10-05T06:55:59.435Z,7.70
2022-10-05T06:58:50.632Z,8.60
2022-10-05T07:01:31.728Z,9.50
2022-10-05T07:04:18.690Z,8.80
2022-10-05T07:06:55.357Z,8.50
2022-10-05T07:09:50.046Z,9.50
2022-10-05T07:12:31.395Z,10.10
2022-10-05T07:15:06.295Z,8.00
2022-10-05T07:18:09.147Z,7.90
2022-10-05T07:20:53.205Z,8.00
2022-10-05T07:24:03.156Z,8.70
2022-10-05T07:26:37.777Z,7.50
2022-10-05T07:29:27.986Z,6.90
2022-10-05T07:32:24.047Z,6.30
2022-10-05T07:35:07.958Z,9.40
2022-10-05T07:37:55.407Z,8.70
2022-10-05T07:40:38.078Z,8.20
2022-10-05T07:43:06.586Z,7.60
2022-10-05T07:45:49.128Z,7.40
2022-10-05T07:48:33.284Z,7.60
2022-10-05T07:51:17.653Z,10.30
2022-10-05T07:53:58.607Z,7.60
2022-10-05T07:56:35.077Z,8.80
2022-10-05T07:59:14.125Z,6.80
2022-10-05T08:01:52.088Z,7.90
2022-10-05T08:04:27.823Z,6.90
2022-10-05T08:07:02.478Z,6.50
2022-10-05T08:09:45.795Z,11.20
2022-10-05T08:12:53.932Z,9.70
2022-10-05T08:15:27.619Z,6.50
2022-10-05T08:18:03.126Z,7.40
2022-10-05T08:20:44.009Z,6.90
2022-10-05T08:23:25.229Z,8.50
2022-10-05T08:26:38.092Z,11.10
2022-10-05T08:29:33.599Z,7.60
2022-10-05T08:32:28.176Z,8.20
2022-10-05T08:35:08.510Z,7.00
2022-10-05T08:37:42.892Z,7.50
2022-10-05T08:44:11.708Z,8.60
2022-10-05T08:47:18.310Z,7.00
2022-10-05T08:50:07.449Z,6.20
2022-10-05T08:53:02.914Z,6.90
2022-10-05T08:55:50.144Z,9.00
2022-10-05T08:58:43.733Z,7.80
2022-10-05T09:01:33.267Z,5.40
2022-10-05T09:04:36.802Z,6.50
2022-10-05T09:07:10.980Z,7.60
2022-10-05T09:10:21.866Z,6.70
2022-10-05T09:13:14.532Z,4.40
2022-10-05T09:15:48.365Z,6.30
2022-10-05T09:18:58.086Z,4.70
2022-10-05T09:21:56.723Z,5.30
2022-10-05T09:24:48.801Z,4.30
2022-10-05T09:27:17.983Z,6.70
2022-10-05T09:30:05.076Z,5.80
2022-10-05T09:33:07.474Z,3.80
2022-10-05T09:36:03.486Z,3.90
2022-10-05T09:38:46.460Z,4.90
2022-10-05T09:41:56.792Z,4.30
2022-10-05T09:44:43.866Z,6.40
2022-10-05T09:47:42.203Z,4.40
2022-10-05T09:50:45.324Z,4.80
2022-10-05T09:54:00.307Z,6.20
2022-10-05T09:57:05.526Z,3.50
2022-10-05T10:00:09.311Z,5.40
2022-10-05T10:03:09.675Z,5.10
2022-10-05T10:05:57.655Z,4.50
2022-10-05T10:08:40.042Z,3.40
2022-10-05T10:11:26.844Z,5.90
2022-10-05T10:14:17.538Z,4.50
2022-10-05T10:17:42.080Z,7.10
2022-10-05T10:20:31.103Z,3.80
2022-10-05T10:23:16.001Z,3.60
2022-10-05T10:26:06.187Z,4.80
2022-10-05T10:29:00.508Z,3.20
2022-10-05T10:32:02.405Z,5.60
2022-10-05T10:34:58.239Z,4.30
2022-10-05T10:37:59.101Z,4.00
2022-10-05T10:40:39.045Z,5.00
2022-10-05T10:43:26.622Z,6.20
2022-10-05T10:46:05.145Z,4.90
2022-10-05T10:49:35.680Z,6.90
2022-10-05T10:52:20.457Z,4.60
2022-10-05T10:55:04.538Z,5.10
2022-10-05T10:57:48.065Z,3.40
2022-10-05T11:00:17.634Z,3.50
2022-10-05T11:03:05.627Z,4.20
2022-10-05T11:05:56.300Z,4.10
2022-10-05T11:08:33.419Z,8.60
2022-10-05T11:11:24.417Z,5.70
2022-10-05T11:14:17.157Z,5.10
2022-10-05T11:17:20.500Z,3.90
2022-10-05T11:20:08.711Z,4.20
2022-10-05T11:22:51.895Z,3.50
2022-10-05T11:26:01.956Z,4.00
2022-10-05T11:28:58.478Z,4.50
2022-10-05T11:32:04.590Z,2.40
2022-10-05T11:34:32.685Z,2.50
2022-10-05T11:37:19.217Z,3.70
2022-10-05T11:40:18.537Z,2.10
2022-10-05T11:43:09.116Z,2.80
2022-10-05T11:46:06.415Z,3.50
2022-10-05T11:49:10.396Z,4.30
2022-10-05T11:51:43.782Z,3.90
2022-10-05T11:54:52.089Z,4.00
2022-10-05T11:57:33.050Z,3.00
2022-10-05T12:00:12.404Z,4.60
2022-10-05T12:03:18.205Z,5.30
2022-10-05T12:06:01.402Z,4.20
2022-10-05T12:08:47.554Z,3.40
2022-10-05T12:11:33.951Z,4.90
2022-10-05T12:14:21.678Z,3.90
2022-10-05T12:17:20.047Z,4.30
2022-10-05T12:23:53.167Z,7.20
2022-10-05T12:26:42.434Z,5.40
2022-10-05T12:29:39.715Z,4.60
2022-10-05T12:32:18.446Z,4.80
2022-10-05T12:35:01.907Z,4.00
2022-10-05T12:38:12.892Z,5.00
2022-10-05T12:40:47.848Z,3.90
2022-10-05T12:43:36.842Z,3.10
2022-10-05T12:46:46.201Z,2.00
2022-10-05T12:49:25.012Z,3.20
2022-10-05T12:52:01.165Z,2.70
2022-10-05T12:54:39.657Z,4.80
2022-10-05T12:57:25.347Z,4.10
2022-10-05T13:00:21.774Z,2.30
2022-10-05T13:03:00.391Z,5.40
2022-10-05T13:05:33.301Z,4.70
2022-10-05T13:08:13.379Z,5.40
2022-10-05T13:11:01.161Z,2.50
2022-10-05T13:13:50.768Z,1.90
2022-10-05T13:16:46.109Z,5.40
2022-10-05T13:19:29.601Z,4.10
2022-10-05T13:22:21.019Z,3.00
2022-10-05T13:25:44.798Z,7.50
2022-10-05T13:28:30.427Z,4.90
2022-10-05T13:31:07.371Z,5.90
2022-10-05T13:33:56.728Z,5.10
2022-10-05T13:37:04.408Z,4.00
2022-10-05T13:39:38.766Z,3.10
2022-10-05T13:42:15.749Z,2.20
2022-10-05T13:44:48.347Z,3.80
2022-10-05T13:47:51.356Z,2.70
2022-10-05T13:50:28.523Z,1.40
2022-10-05T13:53:24.146Z,4.20
2022-10-05T13:56:02.361Z,5.30
2022-10-05T13:58:43.336Z,2.50
2022-10-05T14:01:41.866Z,5.20
2022-10-05T14:04:24.848Z,4.90
2022-10-05T14:06:54.189Z,3.30
2022-10-05T14:09:25.625Z,2.60
2022-10-05T14:12:19.257Z,2.40
2022-10-05T14:14:53.883Z,3.00
2022-10-05T14:17:33.975Z,2.60
2022-10-05T14:20:16.243Z,3.90
2022-10-05T14:22:49.175Z,4.40
2022-10-05T14:25:21.939Z,3.90
2022-10-05T14:27:59.663Z,3.30
2022-10-05T14:30:30.561Z,4.30
2022-10-05T14:33:04.732Z,5.40
2022-10-05T14:35:54.332Z,3.50
2022-10-05T14:38:35.248Z,4.20
2022-10-05T14:41:20.034Z,3.20
2022-10-05T14:43:53.153Z,4.00
2022-10-05T14:46:29.732Z,3.50
2022-10-05T14:49:21.196Z,3.20
2022-10-05T14:51:51.348Z,4.80
2022-10-05T14:54:59.311Z,6.20
2022-10-05T14:57:56.491Z,3.60
2022-10-05T15:00:26.145Z,3.70
2022-10-05T15:03:20.234Z,4.90
2022-10-05T15:05:54.538Z,3.10
2022-10-05T15:09:12.466Z,4.00
2022-10-05T15:11:56.856Z,4.50
2022-10-05T15:14:33.134Z,4.90
2022-10-05T15:17:27.011Z,5.70
2022-10-05T15:20:10.609Z,4.70
2022-10-05T15:23:26.262Z,5.00
2022-10-05T15:26:17.691Z,3.80
2022-10-05T15:28:54.423Z,5.60
2022-10-05T15:31:30.991Z,5.90
2022-10-05T15:34:12.911Z,3.20
2022-10-05T15:36:45.625Z,6.80
2022-10-05T15:39:35.154Z,4.10
2022-10-05T15:42:16.676Z,3.00
2022-10-05T15:45:09.126Z,7.30
2022-10-05T15:47:45.809Z,6.60
2022-10-05T15:50:26.449Z,5.80
2022-10-05T15:53:12.175Z,6.40
2022-10-05T15:56:01.616Z,4.90
2022-10-05T15:58:53.637Z,4.00
2022-10-05T16:01:41.198Z,5.00
2022-10-05T16:04:23.398Z,4.90
2022-10-05T16:07:18.449Z,5.20
2022-10-05T16:10:11.281Z,5.40
2022-10-05T16:13:04.483Z,7.20
2022-10-05T16:15:50.210Z,7.10
2022-10-05T16:18:47.235Z,6.60
2022-10-05T16:21:32.736Z,5.10
2022-10-05T16:24:27.198Z,7.20
2022-10-05T16:27:00.825Z,5.90
2022-10-05T16:29:45.946Z,7.30
2022-10-05T16:32:30.368Z,5.60
2022-10-05T16:35:11.682Z,5.10
2022-10-05T16:38:02.696Z,5.00
2022-10-05T16:40:41.776Z,7.50
2022-10-05T16:43:09.950Z,7.60
2022-10-05T16:45:55.395Z,7.20
2022-10-05T16:48:37.032Z,9.90
2022-10-05T16:51:24.579Z,7.40
2022-10-05T16:53:55.973Z,8.00
2022-10-05T16:56:32.269Z,6.60
2022-10-05T16:59:18.614Z,5.70
2022-10-05T17:02:15.151Z,7.90
2022-10-05T17:05:05.945Z,7.60
2022-10-05T17:07:47.679Z,8.90
2022-10-05T17:10:36.215Z,7.30
2022-10-05T17:13:23.747Z,9.90
2022-10-05T17:16:15.083Z,6.30
2022-10-05T17:19:10.184Z,6.50
2022-10-05T17:21:50.860Z,8.50
2022-10-05T17:24:32.427Z,8.30
2022-10-05T17:28:05.547Z,7.70
2022-10-05T17:30:48.545Z,7.90
2022-10-05T17:33:23.500Z,9.20
2022-10-05T17:35:58.759Z,9.30
2022-10-05T17:38:36.221Z,9.30
2022-10-05T17:41:19.144Z,7.60
2022-10-05T17:44:21.689Z,8.30
2022-10-05T17:46:50.978Z,7.90
2022-10-05T17:49:38.407Z,7.90
2022-10-05T17:52:45.364Z,8.90
2022-10-05T17:55:30.328Z,11.60
2022-10-05T17:58:18.184Z,8.70
2022-10-05T18:00:59.862Z,8.40
2022-10-05T18:03:52.023Z,9.90
2022-10-05T18:06:34.044Z,10.80
2022-10-05T18:09:20.681Z,11.00
2022-10-05T18:12:24.078Z,8.30
2022-10-05T18:15:07.595Z,9.30
2022-10-05T18:17:53.217Z,9.90
2022-10-05T18:20:34.732Z,8.60
2022-10-05T18:23:11.414Z,9.80
2022-10-05T18:26:04.317Z,10.80
2022-10-05T18:29:14.154Z,11.00
2022-10-05T18:32:00.456Z,10.50
2022-10-05T18:34:38.689Z,13.70
2022-10-05T18:37:37.294Z,11.00
2022-10-05T18:40:27.060Z,12.90
2022-10-05T18:43:22.834Z,12.10
2022-10-05T18:46:12.908Z,10.00
2022-10-05T18:48:47.101Z,12.20
2022-10-05T18:51:45.543Z,13.90
2022-10-05T18:55:07.184Z,12.30
2022-10-05T18:57:38.878Z,12.90
2022-10-05T19:00:32.113Z,14.70
2022-10-05T19:03:18.762Z,11.30
2022-10-05T19:05:59.123Z,11.30
2022-10-05T19:09:30.610Z,10.90
2022-10-05T19:12:12.205Z,11.60
2022-10-05T19:14:52.053Z,11.60
2022-10-05T19:17:41.878Z,11.30
2022-10-05T19:20:34.035Z,12.00
2022-10-05T19:23:27.906Z,11.00
2022-10-05T19:26:13.777Z,14.00
2022-10-05T19:29:01.587Z,11.20
2022-10-05T19:31:40.883Z,10.40
2022-10-05T19:34:33.317Z,10.80
2022-10-05T19:37:19.686Z,12.20
2022-10-05T19:39:59.174Z,9.90
2022-10-05T19:43:01.935Z,11.00
2022-10-05T19:45:43.009Z,12.50
2022-10-05T19:48:27.633Z,10.20
2022-10-05T19:50:58.894Z,10.70
2022-10-05T19:53:31.158Z,13.10
2022-10-05T19:56:53.923Z,11.30
2022-10-05T19:59:33.471Z,12.00
2022-10-05T20:02:05.991Z,9.80
2022-10-05T20:04:41.112Z,11.40
2022-10-05T20:07:17.199Z,12.50
2022-10-05T20:10:00.751Z,10.00
2022-10-05T20:12:51.683Z,10.10
2022-10-05T20:15:42.049Z,13.20
2022-10-05T20:18:59.893Z,9.30
2022-10-05T20:21:43.015Z,8.10
2022-10-05T20:24:17.671Z,10.10
2022-10-05T20:27:06.989Z,11.60
2022-10-05T20:29:44.401Z,9.00
2022-10-05T20:32:18.012Z,9.90
2022-10-05T20:34:50.626Z,9.00
2022-10-05T20:37:20.643Z,9.40
2022-10-05T20:39:51.707Z,9.80
2022-10-05T20:42:21.300Z,11.40
2022-10-05T20:44:56.726Z,7.90
2022-10-05T20:47:30.397Z,7.60
2022-10-05T20:49:58.749Z,8.20
2022-10-05T20:52:31.548Z,8.60
2022-10-05T20:55:02.040Z,10.70
2022-10-05T20:57:30.225Z,7.60
2022-10-05T20:59:58.647Z,8.00
2022-10-05T21:02:29.305Z,9.70
2022-10-05T21:04:57.960Z,10.90
2022-10-05T21:07:29.508Z,10.30
2022-10-05T21:09:59.204Z,8.50
2022-10-05T21:12:30.524Z,8.50
2022-10-05T21:15:01.600Z,10.50
2022-10-05T21:17:31.137Z,9.70
2022-10-05T21:22:31.831Z,11.60
2022-10-05T21:25:08.869Z,9.40
2022-10-05T21:27:37.405Z,8.80
2022-10-05T21:30:06.404Z,7.20
2022-10-05T21:32:44.402Z,8.10
2022-10-05T21:35:16.707Z,6.40
2022-10-05T21:37:45.262Z,9.20
2022-10-05T21:40:13.480Z,9.60
2022-10-05T21:42:44.655Z,6.30
2022-10-05T21:45:16.855Z,10.50
2022-10-05T21:47:48.108Z,5.30
2022-10-05T21:50:19.819Z,6.20
2022-10-05T21:52:59.905Z,5.20
2022-10-05T21:55:29.250Z,6.30
2022-10-05T21:58:01.060Z,5.60
2022-10-05T22:00:29.096Z,6.30
2022-10-05T22:02:58.032Z,5.20
2022-10-05T22:05:25.939Z,5.80
2022-10-05T22:07:54.929Z,6.90
2022-10-05T22:10:23.354Z,7.60
2022-10-05T22:12:51.830Z,7.80
2022-10-05T22:15:20.604Z,6.10
2022-10-05T22:17:53.489Z,6.40
2022-10-05T22:20:23.419Z,6.00
2022-10-05T22:22:53.919Z,6.00
2022-10-05T22:25:22.632Z,5.40
2022-10-05T22:27:50.894Z,6.90
2022-10-05T22:30:20.203Z,6.30
2022-10-05T22:32:56.370Z,6.90
2022-10-05T22:35:25.130Z,7.50
2022-10-05T22:37:57.428Z,6.00
2022-10-05T22:40:28.048Z,6.10
2022-10-05T22:42:59.898Z,7.10
2022-10-05T22:45:32.733Z,6.90
2022-10-05T22:48:04.469Z,6.30
2022-10-05T22:50:45.296Z,6.10
2022-10-05T22:53:16.360Z,6.20
2022-10-05T22:55:48.989Z,7.50
2022-10-05T22:58:22.463Z,6.90
2022-10-05T23:00:58.962Z,8.00
2022-10-05T23:03:31.370Z,6.50
2022-10-05T23:06:20.053Z,7.50
2022-10-05T23:08:48.311Z,5.30
2022-10-05T23:11:30.860Z,7.20
2022-10-05T23:14:04.276Z,6.70
2022-10-05T23:16:33.342Z,6.60
2022-10-05T23:19:04.685Z,6.20
2022-10-05T23:21:32.928Z,5.50
2022-10-05T23:26:40.566Z,7.70
2022-10-05T23:29:09.572Z,6.90
2022-10-05T23:31:40.038Z,4.90
2022-10-05T23:34:14.187Z,6.20
2022-10-05T23:36:42.519Z,5.80
2022-10-05T23:39:20.932Z,5.30
2022-10-05T23:41:49.387Z,6.90
2022-10-05T23:44:23.617Z,6.80
2022-10-05T23:46:55.244Z,8.80
2022-10-05T23:49:26.545Z,5.80
2022-10-05T23:51:54.753Z,5.20
2022-10-05T23:54:25.592Z,9.20
2022-10-05T23:56:56.521Z,6.50
2022-10-05T23:59:28.393Z,6.20
